Time;durP1;ratioP1;P1;durP2;ratioP2;P2;SDS_P1;SDS_P2;PMS_P1;PMS_P2;Temp;Humidity;BMP_temperature;BMP_pressure;BME280_temperature;BME280_humidity;BME280_pressure;Samples;Min_cycle;Max_cycle;Signal;HPM_P1;HPM_P2
2024/04/13 00:00:17;;;;;;;20.67;10.55;;;17.80;99.90;;;;;;5452176;26;20017;-74
2024/04/13 00:02:43;;;;;;;12.50;9.10;;;17.80;99.90;;;;;;5452548;26;19995;-74
2024/04/13 00:05:09;;;;;;;17.58;9.93;;;17.80;99.90;;;;;;5452872;26;20007;-74
2024/04/13 00:07:35;;;;;;;13.15;8.88;;;17.80;99.90;;;;;;5453597;26;20466;-74
2024/04/13 00:10:03;;;;;;;12.85;9.95;;;17.70;99.90;;;;;;5453017;26;19999;-73
2024/04/13 00:12:29;;;;;;;14.50;9.00;;;17.70;99.90;;;;;;5452141;26;20038;-74
2024/04/13 00:14:55;;;;;;;14.73;10.13;;;17.70;99.90;;;;;;5453381;26;20006;-73
2024/04/13 00:17:22;;;;;;;12.02;9.68;;;17.70;99.90;;;;;;5453471;26;20464;-74
2024/04/13 00:19:51;;;;;;;15.07;9.77;;;17.60;99.90;;;;;;5453073;26;20003;-73
2024/04/13 00:22:18;;;;;;;17.15;9.95;;;17.60;99.90;;;;;;5452342;26;19998;-73
2024/04/13 00:24:47;;;;;;;13.98;9.80;;;17.60;99.90;;;;;;5452891;26;20027;-73
2024/04/13 00:27:13;;;;;;;15.32;10.05;;;17.60;99.90;;;;;;5453528;26;20003;-74
2024/04/13 00:29:39;;;;;;;20.75;9.50;;;17.60;99.90;;;;;;5450423;26;19999;-77
2024/04/13 00:32:05;;;;;;;15.77;10.73;;;17.60;99.90;;;;;;5452287;26;20018;-73
2024/04/13 00:34:34;;;;;;;21.50;9.73;;;17.60;99.90;;;;;;5452934;26;20018;-74
2024/04/13 00:37:03;;;;;;;17.73;9.35;;;17.60;99.90;;;;;;5452631;26;20010;-75
2024/04/13 00:39:29;;;;;;;15.15;9.85;;;17.60;99.90;;;;;;5452729;26;20010;-73
2024/04/13 00:41:55;;;;;;;18.10;10.48;;;17.60;99.90;;;;;;5448291;26;20084;-74
2024/04/13 00:44:22;;;;;;;19.67;11.07;;;17.60;99.90;;;;;;5452843;26;20038;-73
2024/04/13 00:46:48;;;;;;;13.43;9.77;;;17.60;99.90;;;;;;5452029;26;20010;-74
2024/04/13 00:49:19;;;;;;;15.07;9.88;;;17.50;99.90;;;;;;5452827;26;20016;-73
2024/04/13 00:51:48;;;;;;;14.18;9.77;;;17.50;99.90;;;;;;5452358;26;19996;-74
2024/04/13 00:54:17;;;;;;;19.02;10.40;;;17.40;99.90;;;;;;5451491;26;19999;-74
2024/04/13 00:56:47;;;;;;;13.88;9.98;;;17.40;99.90;;;;;;5451300;26;20007;-73
2024/04/13 00:59:14;;;;;;;17.15;11.13;;;17.30;99.90;;;;;;5452267;26;20059;-74
2024/04/13 01:01:41;;;;;;;23.30;11.05;;;17.40;99.90;;;;;;5451093;26;20006;-73
2024/04/13 01:04:08;;;;;;;15.85;9.85;;;17.30;99.90;;;;;;5444769;26;20454;-75
2024/04/13 01:06:35;;;;;;;16.55;10.30;;;17.30;99.90;;;;;;5450253;26;20003;-75
2024/04/13 01:09:01;;;;;;;17.40;11.73;;;17.30;99.90;;;;;;5452872;26;20070;-74
2024/04/13 01:11:29;;;;;;;17.23;10.15;;;17.40;99.90;;;;;;5451902;26;20376;-75
2024/04/13 01:13:56;;;;;;;17.23;10.82;;;17.30;99.90;;;;;;5450964;26;20331;-74
2024/04/13 01:16:29;;;;;;;19.83;11.57;;;17.30;99.90;;;;;;5450462;26;20003;-73
2024/04/13 01:18:55;;;;;;;;;;;17.30;99.90;;;;;;5453469;26;20014;-74
2024/04/13 01:21:21;;;;;;;16.55;10.57;;;17.20;99.90;;;;;;5450219;26;19924;-74
2024/04/13 01:23:59;;;;;;;20.35;11.85;;;17.20;99.90;;;;;;5452745;26;20466;-74
2024/04/13 01:26:25;;;;;;;15.68;10.55;;;17.20;99.90;;;;;;5451241;26;20079;-75
2024/04/13 01:28:51;;;;;;;17.55;11.23;;;17.20;99.90;;;;;;5452487;26;20002;-74
2024/04/13 01:31:18;;;;;;;18.60;10.70;;;17.10;99.90;;;;;;5452045;26;20454;-73
2024/04/13 01:33:44;;;;;;;19.13;11.38;;;17.20;99.90;;;;;;5452600;26;19999;-73
2024/04/13 01:36:10;;;;;;;16.48;10.88;;;17.20;99.90;;;;;;5452637;26;20010;-74
2024/04/13 01:38:36;;;;;;;16.98;11.32;;;17.10;99.90;;;;;;5453099;26;20040;-73
2024/04/13 01:41:01;;;;;;;16.02;10.52;;;17.10;99.90;;;;;;5450244;26;20011;-74
2024/04/13 01:43:27;;;;;;;19.77;11.15;;;17.10;99.90;;;;;;5451898;26;19995;-75
2024/04/13 01:45:54;;;;;;;24.42;11.18;;;17.00;99.90;;;;;;5451086;26;20431;-73
2024/04/13 01:48:19;;;;;;;16.35;10.02;;;17.10;99.90;;;;;;5452710;26;20007;-73
2024/04/13 01:50:45;;;;;;;14.75;9.80;;;17.10;99.90;;;;;;5449741;26;19999;-74
2024/04/13 01:53:11;;;;;;;17.13;10.30;;;17.00;99.90;;;;;;5449989;26;20003;-74
2024/04/13 01:55:36;;;;;;;16.35;10.68;;;17.00;99.90;;;;;;5452582;26;20014;-74
2024/04/13 01:58:03;;;;;;;15.00;9.95;;;17.00;99.90;;;;;;5452292;26;20450;-74
2024/04/13 02:00:29;;;;;;;14.82;11.02;;;17.00;99.90;;;;;;5449755;26;20072;-74
2024/04/13 02:02:54;;;;;;;17.15;10.63;;;17.00;99.90;;;;;;5450470;26;20007;-74
2024/04/13 02:05:21;;;;;;;20.50;10.35;;;17.10;99.90;;;;;;5452515;26;20010;-73
2024/04/13 02:07:47;;;;;;;18.80;10.20;;;17.00;99.90;;;;;;5452264;26;20075;-73
2024/04/13 02:10:13;;;;;;;16.17;9.75;;;17.00;99.90;;;;;;5450438;26;20011;-74
2024/04/13 02:12:38;;;;;;;12.93;9.23;;;17.00;99.90;;;;;;5452695;26;20405;-74
2024/04/13 02:15:05;;;;;;;16.48;10.10;;;16.90;99.90;;;;;;5450899;26;20003;-75
2024/04/13 02:17:31;;;;;;;17.00;10.68;;;16.90;99.90;;;;;;5452142;26;20012;-74
2024/04/13 02:19:56;;;;;;;19.45;10.55;;;16.80;99.90;;;;;;5451644;26;20009;-74
2024/04/13 02:22:23;;;;;;;16.33;11.48;;;16.80;99.90;;;;;;5451949;26;20363;-74
2024/04/13 02:24:50;;;;;;;19.70;11.38;;;16.80;99.90;;;;;;5451834;26;19995;-74
2024/04/13 02:27:16;;;;;;;17.58;11.15;;;16.80;99.90;;;;;;5451993;26;20071;-73
2024/04/13 02:29:43;;;;;;;18.85;10.77;;;16.80;99.90;;;;;;5450525;26;20010;-73
2024/04/13 02:32:09;;;;;;;14.23;9.93;;;16.80;99.90;;;;;;5451613;26;20013;-73
2024/04/13 02:34:35;;;;;;;17.15;10.95;;;16.80;99.90;;;;;;5449975;26;20459;-74
2024/04/13 02:37:02;;;;;;;17.52;11.52;;;16.80;99.90;;;;;;5451248;26;20009;-74
2024/04/13 02:39:29;;;;;;;18.88;11.75;;;16.80;99.90;;;;;;5451396;26;19995;-73
2024/04/13 02:41:55;;;;;;;17.55;10.27;;;16.80;99.90;;;;;;5450871;26;20371;-74
2024/04/13 02:44:21;;;;;;;19.92;10.30;;;16.80;99.90;;;;;;5451107;26;20463;-74
2024/04/13 02:46:47;;;;;;;15.13;11.35;;;16.80;99.90;;;;;;5451490;26;20074;-74
2024/04/13 02:49:13;;;;;;;18.00;11.20;;;16.80;99.90;;;;;;5451704;26;20010;-73
2024/04/13 02:51:38;;;;;;;18.38;11.60;;;16.80;99.90;;;;;;5451685;26;20017;-74
2024/04/13 02:54:04;;;;;;;16.50;11.32;;;16.80;99.90;;;;;;5449440;26;20013;-73
2024/04/13 02:56:30;;;;;;;16.55;11.32;;;16.80;99.90;;;;;;5450812;26;19995;-74
2024/04/13 02:58:56;;;;;;;15.70;10.45;;;16.80;99.90;;;;;;5451621;26;20067;-73
2024/04/13 03:01:21;;;;;;;19.77;10.90;;;16.80;99.90;;;;;;5451391;26;20003;-73
2024/04/13 03:03:48;;;;;;;16.90;10.88;;;16.80;99.90;;;;;;5449048;26;20013;-73
2024/04/13 03:06:14;;;;;;;19.88;12.57;;;16.70;99.90;;;;;;5449121;26;20393;-74
2024/04/13 03:08:40;;;;;;;17.23;11.23;;;16.80;99.90;;;;;;5450905;26;20032;-73
2024/04/13 03:11:11;;;;;;;17.75;10.75;;;16.80;99.90;;;;;;5449472;26;19999;-73
2024/04/13 03:13:38;;;;;;;16.92;10.82;;;16.70;99.90;;;;;;5449632;26;20010;-73
2024/04/13 03:16:05;;;;;;;13.68;10.63;;;16.70;99.90;;;;;;5451340;26;20397;-74
2024/04/13 03:18:32;;;;;;;18.00;11.85;;;16.70;99.90;;;;;;5451340;26;20010;-75
2024/04/13 03:20:59;;;;;;;19.48;11.70;;;16.70;99.90;;;;;;5450510;26;19999;-73
2024/04/13 03:23:25;;;;;;;22.40;11.48;;;16.70;99.90;;;;;;5454175;26;20317;-73
2024/04/13 03:25:51;;;;;;;20.77;11.55;;;16.60;99.90;;;;;;5455033;26;20013;-73
2024/04/13 03:28:26;;;;;;;19.52;11.35;;;16.60;99.90;;;;;;5453216;26;20013;-75
2024/04/13 03:30:52;;;;;;;18.10;11.40;;;16.50;99.90;;;;;;5454496;26;20375;-74
2024/04/13 03:33:18;;;;;;;17.27;11.18;;;16.50;99.90;;;;;;5454473;26;20010;-74
2024/04/13 03:35:46;;;;;;;20.92;11.70;;;16.50;99.90;;;;;;5454333;26;20002;-73
2024/04/13 03:38:16;;;;;;;17.85;12.15;;;16.50;99.90;;;;;;5452635;26;20070;-73
2024/04/13 03:40:41;;;;;;;17.10;11.82;;;16.50;99.90;;;;;;5454664;26;20018;-74
2024/04/13 03:43:07;;;;;;;15.65;11.85;;;16.50;99.90;;;;;;5451911;26;20018;-74
2024/04/13 03:45:36;;;;;;;18.30;11.93;;;16.50;99.90;;;;;;5453185;26;19995;-75
2024/04/13 03:48:02;;;;;;;17.38;12.18;;;16.50;99.90;;;;;;5454286;26;20335;-73
2024/04/13 03:50:27;;;;;;;17.13;12.25;;;16.40;99.90;;;;;;5454366;26;19999;-73
2024/04/13 03:52:53;;;;;;;16.08;11.98;;;16.40;99.90;;;;;;5454030;26;20544;-73
2024/04/13 03:55:19;;;;;;;16.27;11.63;;;16.40;99.90;;;;;;5453348;26;20013;-74
2024/04/13 03:57:44;;;;;;;16.67;12.13;;;16.40;99.90;;;;;;5454513;26;20348;-73
2024/04/13 04:00:11;;;;;;;18.55;11.65;;;16.40;99.90;;;;;;5454128;26;19995;-73
2024/04/13 04:02:36;;;;;;;21.15;12.65;;;16.40;99.90;;;;;;5452745;26;20429;-73
2024/04/13 04:05:03;;;;;;;18.38;11.55;;;16.40;99.90;;;;;;5453530;26;20439;-73
2024/04/13 04:07:29;;;;;;;19.05;12.82;;;16.40;99.90;;;;;;5452762;26;20455;-73
2024/04/13 04:09:55;;;;;;;23.88;12.88;;;16.40;99.90;;;;;;5442003;26;20009;-73
2024/04/13 04:12:20;;;;;;;16.95;13.02;;;16.30;99.90;;;;;;5427541;26;20035;-73
2024/04/13 04:14:46;;;;;;;18.52;12.35;;;16.20;99.90;;;;;;5416907;26;20759;-73
2024/04/13 04:17:12;;;;;;;16.15;12.30;;;16.20;99.90;;;;;;5417304;26;19999;-73
2024/04/13 04:19:38;;;;;;;18.15;12.60;;;16.20;99.90;;;;;;5418000;26;19995;-73
2024/04/13 04:22:04;;;;;;;17.50;12.90;;;16.20;99.90;;;;;;5417801;26;20336;-73
2024/04/13 04:24:29;;;;;;;19.58;12.65;;;16.20;99.90;;;;;;5428410;26;20474;-74
2024/04/13 04:26:55;;;;;;;17.65;12.00;;;16.10;99.90;;;;;;5452343;26;20067;-73
2024/04/13 04:29:21;;;;;;;18.58;13.70;;;16.10;99.90;;;;;;5453516;26;19995;-72
2024/04/13 04:31:46;;;;;;;17.67;12.40;;;16.10;99.90;;;;;;5453747;26;20446;-73
2024/04/13 04:34:12;;;;;;;19.15;12.52;;;16.10;99.90;;;;;;5452099;26;19995;-73
2024/04/13 04:36:39;;;;;;;18.80;12.57;;;16.20;99.90;;;;;;5452660;26;20006;-73
2024/04/13 04:39:05;;;;;;;23.35;12.77;;;16.20;99.90;;;;;;5453580;26;19991;-75
2024/04/13 04:41:31;;;;;;;17.88;13.13;;;16.10;99.90;;;;;;5450735;26;20059;-72
2024/04/13 04:43:57;;;;;;;15.40;12.30;;;16.10;99.90;;;;;;5453646;26;20386;-73
2024/04/13 04:46:23;;;;;;;18.25;12.98;;;16.00;99.90;;;;;;5452251;26;19995;-73
2024/04/13 04:48:53;;;;;;;24.45;14.77;;;16.00;99.90;;;;;;5452113;26;19995;-73
2024/04/13 04:51:20;;;;;;;21.52;13.13;;;16.00;99.90;;;;;;5453187;26;20003;-73
2024/04/13 04:53:46;;;;;;;18.50;14.27;;;16.00;99.90;;;;;;5453822;26;20440;-72
2024/04/13 04:56:11;;;;;;;13.85;11.88;;;16.10;99.90;;;;;;5450467;26;20472;-72
2024/04/13 04:58:37;;;;;;;18.88;12.48;;;16.00;99.90;;;;;;5453308;26;20040;-72
2024/04/13 05:01:04;;;;;;;19.38;13.07;;;16.00;99.90;;;;;;5452372;26;20007;-72
2024/04/13 05:03:29;;;;;;;15.52;11.50;;;16.00;99.90;;;;;;5449327;26;20010;-72
2024/04/13 05:05:55;;;;;;;22.83;12.05;;;16.00;99.90;;;;;;5450280;26;20013;-72
2024/04/13 05:08:21;;;;;;;19.00;13.27;;;16.00;99.90;;;;;;5450089;26;19999;-72
2024/04/13 05:10:47;;;;;;;20.58;13.52;;;15.90;99.90;;;;;;5441470;26;19999;-78
2024/04/13 05:13:15;;;;;;;22.30;13.00;;;15.90;99.90;;;;;;5447477;26;20006;-73
2024/04/13 05:15:40;;;;;;;21.48;13.45;;;15.90;99.90;;;;;;5451562;26;19999;-73
2024/04/13 05:18:07;;;;;;;23.65;14.25;;;15.90;99.90;;;;;;5452930;26;20534;-73
2024/04/13 05:20:34;;;;;;;21.08;14.20;;;16.00;99.90;;;;;;5451951;26;19995;-73
2024/04/13 05:23:03;;;;;;;19.25;11.73;;;16.00;99.90;;;;;;5440088;26;20006;-74
2024/04/13 05:25:29;;;;;;;16.77;13.57;;;15.90;99.90;;;;;;5452864;26;20014;-74
2024/04/13 05:27:55;;;;;;;18.98;12.80;;;15.90;99.90;;;;;;5452533;26;20014;-75
2024/04/13 05:30:21;;;;;;;20.65;13.13;;;16.00;99.90;;;;;;5451725;26;19999;-75
2024/04/13 05:32:47;;;;;;;17.52;13.13;;;16.00;99.90;;;;;;5450812;26;20003;-77
2024/04/13 05:35:13;;;;;;;25.65;13.25;;;16.00;99.90;;;;;;5452709;26;20467;-74
2024/04/13 05:37:39;;;;;;;20.20;13.57;;;16.10;99.90;;;;;;5453050;26;20075;-76
2024/04/13 05:40:05;;;;;;;21.13;12.93;;;16.10;99.90;;;;;;5451575;26;20388;-77
2024/04/13 05:42:31;;;;;;;20.67;14.18;;;16.10;99.90;;;;;;5444058;26;20003;-75
2024/04/13 05:44:58;;;;;;;20.40;13.43;;;16.10;99.90;;;;;;5447833;26;20439;-70
2024/04/13 05:47:24;;;;;;;20.40;13.02;;;16.10;99.90;;;;;;5451926;26;19999;-79
2024/04/13 05:49:53;;;;;;;22.63;13.50;;;16.00;99.90;;;;;;5445007;26;20014;-74
2024/04/13 05:52:18;;;;;;;14.73;11.93;;;16.10;99.90;;;;;;5420574;26;20000;-73
2024/04/13 05:54:44;;;;;;;16.77;12.18;;;16.20;99.90;;;;;;5450506;26;20013;-77
2024/04/13 05:57:11;;;;;;;14.85;11.82;;;16.10;99.90;;;;;;5442868;26;20416;-76
2024/04/13 05:59:38;;;;;;;18.02;12.13;;;16.20;99.90;;;;;;5441707;26;20021;-78
2024/04/13 06:02:04;;;;;;;17.98;12.68;;;16.20;99.90;;;;;;5442635;26;20071;-79
2024/04/13 06:04:30;;;;;;;17.20;13.00;;;16.20;99.90;;;;;;5435732;26;20014;-78
2024/04/13 06:06:56;;;;;;;19.83;13.95;;;16.20;99.90;;;;;;5451975;26;20067;-73
2024/04/13 06:09:21;;;;;;;19.77;13.10;;;16.20;99.90;;;;;;5451196;26;19999;-72
2024/04/13 06:11:47;;;;;;;16.88;12.68;;;16.20;99.90;;;;;;5431748;26;20068;-72
2024/04/13 06:14:14;;;;;;;17.60;11.27;;;16.30;99.90;;;;;;5450127;26;20011;-73
2024/04/13 06:16:40;;;;;;;14.40;10.95;;;16.30;99.90;;;;;;5432361;26;20332;-73
2024/04/13 06:19:06;;;;;;;11.80;10.45;;;16.40;99.90;;;;;;5441638;26;20011;-72
2024/04/13 06:21:32;;;;;;;14.65;9.73;;;16.40;99.90;;;;;;5443857;26;20490;-77
2024/04/13 06:23:58;;;;;;;15.32;11.23;;;16.40;99.90;;;;;;5451167;26;20003;-77
2024/04/13 06:26:23;;;;;;;13.55;10.48;;;16.50;99.90;;;;;;5441238;26;20340;-75
2024/04/13 06:28:52;;;;;;;15.15;10.05;;;16.60;99.90;;;;;;5434962;26;20011;-77
2024/04/13 06:31:17;;;;;;;19.23;11.07;;;16.60;99.90;;;;;;5446546;26;20002;-78
2024/04/13 06:33:43;;;;;;;15.40;10.85;;;16.60;99.90;;;;;;5451657;26;20013;-76
2024/04/13 06:36:09;;;;;;;15.45;10.30;;;16.70;99.90;;;;;;5451811;26;19995;-72
2024/04/13 06:38:35;;;;;;;15.63;9.63;;;16.80;99.90;;;;;;5451397;26;20003;-73
2024/04/13 06:41:00;;;;;;;12.60;8.95;;;16.80;99.90;;;;;;5450789;26;19999;-77
2024/04/13 06:43:26;;;;;;;14.75;9.65;;;16.90;99.90;;;;;;5451258;26;20447;-74
2024/04/13 06:45:52;;;;;;;13.05;9.50;;;16.90;99.90;;;;;;5451559;26;20010;-73
2024/04/13 06:48:18;;;;;;;16.65;9.93;;;16.90;99.90;;;;;;5451451;26;20393;-74
2024/04/13 06:50:44;;;;;;;13.32;9.13;;;17.00;99.90;;;;;;5451264;26;20010;-74
2024/04/13 06:53:09;;;;;;;12.38;8.68;;;17.00;99.90;;;;;;5451228;26;20052;-73
2024/04/13 06:55:35;;;;;;;12.23;9.40;;;17.00;99.90;;;;;;5451187;26;20443;-72
2024/04/13 06:58:01;;;;;;;13.10;8.68;;;17.10;99.90;;;;;;5455019;26;19995;-73
2024/04/13 07:00:26;;;;;;;13.65;9.48;;;17.10;99.90;;;;;;5454295;26;20052;-74
2024/04/13 07:02:52;;;;;;;15.18;8.88;;;17.10;99.90;;;;;;5444089;26;20067;-74
2024/04/13 07:05:18;;;;;;;16.13;8.50;;;17.20;99.90;;;;;;5454698;26;20005;-73
2024/04/13 07:07:43;;;;;;;10.90;8.50;;;17.20;99.90;;;;;;5454623;26;19999;-73
2024/04/13 07:10:09;;;;;;;13.48;9.70;;;17.30;99.90;;;;;;5449245;26;20021;-73
2024/04/13 07:12:35;;;;;;;14.10;8.43;;;17.30;99.90;;;;;;5422229;26;20018;-72
2024/04/13 07:15:01;;;;;;;14.63;8.23;;;17.40;99.90;;;;;;5412958;26;20459;-73
2024/04/13 07:17:27;;;;;;;15.35;7.93;;;17.40;99.90;;;;;;5426814;26;20672;-76
2024/04/13 07:19:53;;;;;;;13.07;8.10;;;17.40;99.90;;;;;;5430151;26;20153;-74
2024/04/13 07:22:20;;;;;;;11.18;6.97;;;17.40;99.90;;;;;;5428103;26;19999;-73
2024/04/13 07:24:45;;;;;;;10.25;7.43;;;17.50;99.90;;;;;;5427680;26;20027;-73
2024/04/13 07:27:11;;;;;;;9.02;6.82;;;17.60;99.90;;;;;;5435433;26;20033;-76
2024/04/13 07:29:37;;;;;;;11.60;7.10;;;17.80;99.90;;;;;;5433694;26;20026;-77
2024/04/13 07:32:02;;;;;;;13.65;7.78;;;17.80;99.90;;;;;;5436903;26;20747;-73
2024/04/13 07:34:28;;;;;;;13.43;7.47;;;17.80;99.90;;;;;;5428206;26;20003;-73
2024/04/13 07:36:54;;;;;;;9.05;6.85;;;17.90;99.90;;;;;;5436622;26;19999;-74
2024/04/13 07:39:20;;;;;;;9.60;6.65;;;18.10;99.90;;;;;;5433330;26;20365;-75
2024/04/13 07:41:45;;;;;;;10.98;7.15;;;18.10;99.90;;;;;;5435547;26;20004;-75
2024/04/13 07:44:13;;;;;;;9.20;6.78;;;18.20;99.90;;;;;;5433903;26;20577;-76
2024/04/13 07:46:39;;;;;;;9.95;6.90;;;18.20;99.90;;;;;;5432993;26;20004;-78
2024/04/13 07:49:05;;;;;;;12.23;6.38;;;18.30;99.90;;;;;;5426653;26;20027;-75
2024/04/13 07:51:31;;;;;;;11.32;5.95;;;18.40;99.90;;;;;;5435539;26;20011;-75
2024/04/13 07:53:56;;;;;;;12.18;6.03;;;18.40;99.90;;;;;;5433068;26;20528;-76
2024/04/13 07:56:22;;;;;;;16.17;6.72;;;18.50;99.90;;;;;;5427709;26;20399;-75
2024/04/13 07:58:48;;;;;;;11.93;5.93;;;18.60;99.90;;;;;;5431058;26;20019;-78
2024/04/13 08:01:13;;;;;;;11.00;6.20;;;18.70;99.90;;;;;;5431144;26;20000;-73
2024/04/13 08:03:39;;;;;;;14.90;5.70;;;18.80;99.90;;;;;;5422865;26;20000;-74
2024/04/13 08:06:05;;;;;;;10.27;5.68;;;18.80;99.90;;;;;;5432097;26;19998;-74
2024/04/13 08:08:31;;;;;;;11.52;6.20;;;18.90;99.90;;;;;;5432658;26;20011;-75
2024/04/13 08:10:56;;;;;;;13.20;5.97;;;19.00;99.90;;;;;;5429218;26;20007;-74
2024/04/13 08:13:22;;;;;;;8.30;4.97;;;19.10;99.90;;;;;;5423794;26;20463;-74
2024/04/13 08:15:48;;;;;;;6.75;5.80;;;19.20;99.90;;;;;;5425102;26;20084;-75
2024/04/13 08:18:15;;;;;;;10.18;5.30;;;19.30;99.90;;;;;;5430979;26;19995;-75
2024/04/13 08:20:40;;;;;;;10.30;5.47;;;19.30;99.90;;;;;;5425690;26;20443;-74
2024/04/13 08:23:07;;;;;;;9.63;5.35;;;19.50;99.90;;;;;;5432258;26;19998;-76
2024/04/13 08:25:33;;;;;;;6.80;4.78;;;19.60;99.90;;;;;;5432137;26;19998;-74
2024/04/13 08:27:58;;;;;;;7.70;5.15;;;19.70;99.90;;;;;;5428850;26;20025;-75
2024/04/13 08:30:24;;;;;;;8.38;5.50;;;19.70;99.90;;;;;;5438619;26;19998;-75
2024/04/13 08:32:50;;;;;;;11.07;4.78;;;19.80;99.90;;;;;;5432330;26;20335;-75
2024/04/13 08:35:16;;;;;;;10.50;4.78;;;19.90;99.90;;;;;;5426823;26;20018;-76
2024/04/13 08:37:41;;;;;;;14.95;5.00;;;20.00;99.90;;;;;;5430629;26;20017;-76
2024/04/13 08:40:11;;;;;;;23.08;5.50;;;20.20;99.90;;;;;;5431820;26;20044;-74
2024/04/13 08:42:40;;;;;;;7.93;4.90;;;20.20;99.90;;;;;;5436214;26;19995;-74
2024/04/13 08:45:10;;;;;;;7.88;5.07;;;20.30;99.90;;;;;;5426287;26;20003;-76
2024/04/13 08:47:41;;;;;;;7.47;5.32;;;20.40;99.90;;;;;;5434424;26;20451;-75
2024/04/13 08:50:08;;;;;;;10.10;5.15;;;20.40;99.90;;;;;;5435506;26;20067;-75
2024/04/13 08:52:35;;;;;;;6.45;4.60;;;20.50;99.90;;;;;;5428512;26;19999;-74
2024/04/13 08:55:03;;;;;;;8.25;5.00;;;20.60;99.90;;;;;;5433968;26;20025;-75
2024/04/13 08:57:33;;;;;;;7.93;4.38;;;20.70;99.90;;;;;;5430093;26;20027;-74
2024/04/13 09:00:02;;;;;;;10.02;4.80;;;20.80;99.90;;;;;;5432120;26;20007;-75
2024/04/13 09:02:33;;;;;;;5.72;3.92;;;20.90;99.90;;;;;;5437363;26;20003;-75
2024/04/13 09:05:02;;;;;;;8.70;4.53;;;21.00;99.90;;;;;;5429118;26;20031;-74
2024/04/13 09:07:31;;;;;;;14.18;4.95;;;21.10;99.90;;;;;;5434481;26;19999;-77
2024/04/13 09:09:59;;;;;;;5.47;4.18;;;21.10;99.90;;;;;;5433293;26;20003;-76
2024/04/13 09:12:25;;;;;;;6.82;5.05;;;21.20;99.90;;;;;;5433584;26;20011;-75
2024/04/13 09:14:53;;;;;;;5.85;3.58;;;21.30;99.90;;;;;;5432169;26;20006;-76
2024/04/13 09:17:20;;;;;;;10.88;4.85;;;21.30;99.90;;;;;;5423505;26;20030;-74
2024/04/13 09:19:46;;;;;;;5.68;4.03;;;21.40;99.90;;;;;;5429522;26;20016;-80
2024/04/13 09:22:13;;;;;;;8.02;3.70;;;21.40;99.90;;;;;;5429936;26;19999;-75
2024/04/13 09:24:41;;;;;;;7.03;4.55;;;21.50;99.90;;;;;;5433993;26;20009;-74
2024/04/13 09:27:28;;;;;;;7.57;3.60;;;21.60;99.90;;;;;;5430328;26;20010;-76
2024/04/13 09:30:08;;;;;;;7.57;4.07;;;21.70;99.90;;;;;;5428160;26;20097;-76
2024/04/13 09:32:35;;;;;;;9.27;3.92;;;21.80;99.90;;;;;;5430809;26;20082;-75
2024/04/13 09:35:12;;;;;;;5.53;3.92;;;21.90;99.90;;;;;;5432746;26;20034;-77
2024/04/13 09:37:38;;;;;;;5.40;3.72;;;21.90;99.90;;;;;;5430328;26;20007;-75
2024/04/13 09:40:06;;;;;;;10.07;4.13;;;22.20;99.90;;;;;;5424655;26;20568;-76
2024/04/13 09:42:32;;;;;;;8.48;4.15;;;22.30;99.90;;;;;;5429083;26;20003;-75
2024/04/13 09:45:05;;;;;;;6.47;3.15;;;22.30;99.90;;;;;;5437413;26;19995;-76
2024/04/13 09:47:32;;;;;;;6.88;4.05;;;22.40;99.90;;;;;;5433981;26;20003;-75
2024/04/13 09:49:57;;;;;;;7.45;3.42;;;22.60;99.90;;;;;;5422569;26;20014;-76
2024/04/13 09:52:24;;;;;;;8.00;3.13;;;22.60;99.90;;;;;;5424332;26;20012;-75
2024/04/13 09:54:50;;;;;;;5.72;3.28;;;22.70;99.90;;;;;;5423996;26;20417;-76
2024/04/13 09:57:18;;;;;;;7.18;3.53;;;22.80;99.90;;;;;;5434574;26;20010;-76
2024/04/13 09:59:47;;;;;;;7.22;3.40;;;23.00;99.90;;;;;;5430316;26;20328;-76
2024/04/13 10:02:12;;;;;;;6.00;3.60;;;22.90;99.90;;;;;;5425834;26;20002;-75
2024/04/13 10:04:38;;;;;;;4.43;3.22;;;23.00;99.90;;;;;;5425673;26;20003;-77
2024/04/13 10:07:06;;;;;;;4.18;3.50;;;23.10;99.90;;;;;;5423741;26;20068;-76
2024/04/13 10:09:33;;;;;;;6.57;3.13;;;23.20;99.90;;;;;;5427084;26;20009;-75
2024/04/13 10:12:00;;;;;;;5.72;2.70;;;23.30;99.90;;;;;;5426426;26;20214;-75
2024/04/13 10:14:27;;;;;;;7.53;3.10;;;23.50;99.90;;;;;;5423733;26;19999;-77
2024/04/13 10:16:54;;;;;;;5.20;3.60;;;23.50;99.90;;;;;;5432391;26;20544;-76
2024/04/13 10:19:22;;;;;;;6.97;3.58;;;23.70;99.90;;;;;;5434154;26;20012;-76
2024/04/13 10:21:58;;;;;;;5.78;3.50;;;23.80;99.90;;;;;;5429466;26;20014;-76
2024/04/13 10:24:26;;;;;;;7.68;3.15;;;23.80;99.90;;;;;;5429991;26;20013;-76
2024/04/13 10:26:52;;;;;;;6.07;3.00;;;23.80;99.90;;;;;;5425805;26;20184;-77
2024/04/13 10:29:27;;;;;;;8.05;2.78;;;23.80;99.90;;;;;;5435841;26;20010;-76
2024/04/13 10:31:52;;;;;;;6.97;3.22;;;24.00;99.90;;;;;;5429345;26;20558;-76
2024/04/13 10:34:25;;;;;;;7.45;3.38;;;24.20;99.90;;;;;;5437497;26;20084;-76
2024/04/13 10:36:58;;;;;;;5.88;3.03;;;24.20;99.90;;;;;;5419413;26;20018;-75
2024/04/13 10:39:24;;;;;;;5.47;3.13;;;24.40;99.90;;;;;;5432264;26;20565;-76
2024/04/13 10:41:50;;;;;;;6.32;3.63;;;24.40;99.90;;;;;;5428229;26;20512;-76
2024/04/13 10:44:25;;;;;;;4.78;3.33;;;24.40;99.90;;;;;;5429392;26;20007;-76
2024/04/13 10:46:51;;;;;;;7.72;3.63;;;24.50;99.90;;;;;;5433367;26;20004;-77
2024/04/13 10:49:21;;;;;;;7.93;3.72;;;24.70;99.90;;;;;;5430088;26;19999;-78
2024/04/13 10:51:46;;;;;;;9.23;3.40;;;24.80;99.90;;;;;;5428905;26;20058;-78
2024/04/13 10:54:15;;;;;;;4.05;3.28;;;24.70;99.90;;;;;;5428820;26;20435;-79
2024/04/13 10:56:42;;;;;;;8.05;3.75;;;24.60;99.90;;;;;;5427593;26;20003;-76
2024/04/13 10:59:09;;;;;;;7.22;3.70;;;24.50;99.90;;;;;;5429685;26;20347;-76
2024/04/13 11:01:43;;;;;;;7.03;3.22;;;24.60;99.90;;;;;;5429077;26;20014;-80
2024/04/13 11:04:11;;;;;;;7.05;3.55;;;24.70;99.90;;;;;;5432441;26;20007;-80
2024/04/13 11:06:41;;;;;;;7.75;3.72;;;24.80;99.90;;;;;;5423955;26;20008;-78
2024/04/13 11:09:07;;;;;;;8.18;3.97;;;24.90;99.90;;;;;;5426240;26;20080;-76
2024/04/13 11:11:34;;;;;;;7.93;3.95;;;25.10;99.90;;;;;;5430668;26;20008;-80
2024/04/13 11:13:59;;;;;;;6.93;3.58;;;25.10;99.90;;;;;;5428174;26;20676;-78
2024/04/13 11:16:25;;;;;;;10.63;4.22;;;25.10;99.90;;;;;;5428903;26;20116;-78
2024/04/13 11:18:51;;;;;;;8.38;4.78;;;25.10;99.90;;;;;;5431101;26;20035;-80
2024/04/13 11:21:20;;;;;;;9.68;3.60;;;25.10;99.90;;;;;;5423578;26;20458;-81
2024/04/13 11:23:47;;;;;;;8.88;4.45;;;24.80;99.90;;;;;;5422739;26;20003;-79
2024/04/13 11:26:14;;;;;;;5.20;4.13;;;24.80;99.90;;;;;;5427810;26;20011;-78
2024/04/13 11:28:40;;;;;;;7.50;3.75;;;24.90;99.90;;;;;;5431687;26;20013;-77
2024/04/13 11:31:05;;;;;;;4.32;3.55;;;25.00;99.90;;;;;;5428732;26;20443;-77
2024/04/13 11:33:32;;;;;;;5.88;3.78;;;25.10;99.90;;;;;;5428056;26;20015;-76
2024/04/13 11:35:59;;;;;;;5.18;3.40;;;25.10;99.90;;;;;;5432292;26;20004;-80
2024/04/13 11:38:28;;;;;;;7.97;4.00;;;25.10;99.90;;;;;;5432584;26;20006;-78
2024/04/13 11:40:54;;;;;;;7.82;3.65;;;25.10;99.90;;;;;;5423639;26;20329;-80
2024/04/13 11:43:21;;;;;;;6.88;3.17;;;25.20;99.90;;;;;;5430765;26;20003;-81
2024/04/13 11:45:48;;;;;;;9.43;3.97;;;25.30;99.90;;;;;;5431711;26;20015;-80
2024/04/13 11:48:14;;;;;;;6.38;3.53;;;25.30;99.90;;;;;;5436712;26;20011;-79
2024/04/13 11:50:40;;;;;;;8.20;3.72;;;25.50;99.90;;;;;;5432251;26;20047;-76
2024/04/13 11:53:06;;;;;;;5.18;3.40;;;25.50;99.90;;;;;;5431038;26;20037;-79
2024/04/13 11:55:34;;;;;;;6.32;3.75;;;25.50;99.90;;;;;;5432744;26;20511;-80
2024/04/13 11:58:00;;;;;;;8.68;3.53;;;25.50;99.90;;;;;;5435301;26;20077;-79
2024/04/13 12:00:25;;;;;;;5.18;3.60;;;25.60;99.90;;;;;;5435381;26;20011;-81
2024/04/13 12:02:52;;;;;;;6.57;3.28;;;25.60;99.90;;;;;;5432292;26;20468;-80
2024/04/13 12:05:18;;;;;;;5.38;3.40;;;25.70;99.90;;;;;;5427986;26;20411;-78
2024/04/13 12:07:44;;;;;;;8.60;3.35;;;25.80;99.90;;;;;;5434849;26;20018;-76
2024/04/13 12:10:10;;;;;;;3.55;3.05;;;25.90;99.90;;;;;;5434012;26;19999;-77
2024/04/13 12:12:36;;;;;;;6.00;3.35;;;25.70;99.90;;;;;;5426589;26;20003;-79
2024/04/13 12:15:02;;;;;;;6.93;3.28;;;25.70;99.90;;;;;;5428704;26;20141;-78
2024/04/13 12:17:28;;;;;;;7.03;3.15;;;25.70;99.90;;;;;;5432440;26;20018;-80
2024/04/13 12:19:54;;;;;;;7.00;3.17;;;25.80;99.90;;;;;;5431564;26;20031;-76
2024/04/13 12:22:20;;;;;;;5.43;3.85;;;25.90;99.90;;;;;;5434115;26;19999;-81
2024/04/13 12:24:45;;;;;;;8.38;3.38;;;25.90;99.90;;;;;;5434498;26;20003;-76
2024/04/13 12:27:12;;;;;;;7.20;3.97;;;25.90;99.90;;;;;;5433784;26;20006;-79
2024/04/13 12:29:39;;;;;;;4.15;3.20;;;25.90;99.90;;;;;;5431677;26;20018;-82
2024/04/13 12:32:05;;;;;;;5.57;3.50;;;25.90;99.90;;;;;;5428662;26;20010;-76